Time;durP1;ratioP1;P1;durP2;ratioP2;P2;SDS_P1;SDS_P2;PMS_P1;PMS_P2;Temp;Humidity;BMP_temperature;BMP_pressure;BME280_temperature;BME280_humidity;BME280_pressure;Samples;Min_cycle;Max_cycle;Signal;HPM_P1;HPM_P2
2021/10/21 00:02:44;;;;;;;0.25;0.20;;;23.30;58.60;;;;;;31889741;28;20095;-59
2021/10/21 00:17:46;;;;;;;0.10;0.10;;;23.20;58.80;;;;;;31883480;27;20077;-58
2021/10/21 00:32:48;;;;;;;6.15;4.43;;;23.20;58.90;;;;;;31888051;28;20042;-52
2021/10/21 00:47:50;;;;;;;9.75;8.32;;;23.00;59.00;;;;;;31891972;27;20055;-45
2021/10/21 01:02:52;;;;;;;8.75;6.93;;;22.80;59.10;;;;;;31884454;28;20070;-47
2021/10/21 01:17:55;;;;;;;4.50;4.03;;;22.80;59.30;;;;;;31888756;28;20544;-46
2021/10/21 01:32:57;;;;;;;4.15;3.72;;;22.80;59.90;;;;;;31886259;28;20050;-48
2021/10/21 01:48:01;;;;;;;3.20;2.47;;;23.30;60.90;;;;;;31884977;28;20066;-48
2021/10/21 02:03:03;;;;;;;4.57;3.08;;;23.40;59.30;;;;;;31883740;28;20044;-49
2021/10/21 02:18:05;;;;;;;2.72;2.50;;;23.30;59.30;;;;;;31882310;28;20063;-46
2021/10/21 02:33:07;;;;;;;2.50;2.00;;;23.20;59.50;;;;;;31881190;28;20039;-45
2021/10/21 02:48:09;;;;;;;1.67;1.58;;;23.20;59.50;;;;;;31894527;28;20059;-44
2021/10/21 03:03:11;;;;;;;1.75;1.60;;;23.10;59.70;;;;;;31902528;28;20058;-47
2021/10/21 03:18:13;;;;;;;2.15;1.73;;;23.00;59.80;;;;;;31894297;28;20067;-52
2021/10/21 03:33:15;;;;;;;1.58;1.38;;;22.90;59.50;;;;;;31892814;28;20066;-46
2021/10/21 03:48:18;;;;;;;1.55;1.45;;;22.80;59.60;;;;;;31890547;28;20134;-46
2021/10/21 04:03:20;;;;;;;2.78;1.42;;;22.70;59.80;;;;;;31892244;27;20039;-56
2021/10/21 04:18:21;;;;;;;1.42;1.05;;;23.10;59.80;;;;;;31891248;28;20080;-47
2021/10/21 04:33:23;;;;;;;2.03;0.90;;;23.40;60.00;;;;;;31886610;28;20036;-59
2021/10/21 04:48:26;;;;;;;2.22;1.10;;;23.40;59.90;;;;;;31886163;28;20094;-47
2021/10/21 05:04:06;;;;;;;4.35;1.50;;;23.30;60.10;;;;;;31880652;28;20214;-47
2021/10/21 05:19:07;;;;;;;15.30;6.90;;;23.20;60.40;;;;;;31887489;27;20092;-58
2021/10/21 05:34:09;;;;;;;9.13;6.50;;;23.00;57.90;;;;;;31872562;28;20051;-57
2021/10/21 05:49:11;;;;;;;7.18;4.70;;;22.90;57.20;;;;;;31879482;28;20063;-56
2021/10/21 06:04:13;;;;;;;11.13;6.03;;;22.80;57.00;;;;;;31882897;28;20063;-55
2021/10/21 06:19:16;;;;;;;11.30;8.82;;;23.00;55.30;;;;;;31918224;27;20047;-55
2021/10/21 06:34:18;;;;;;;9.32;8.25;;;23.00;54.70;;;;;;31880820;28;20054;-56
2021/10/21 06:49:22;;;;;;;9.05;7.63;;;23.00;56.10;;;;;;31880427;28;20126;-52
2021/10/21 07:04:25;;;;;;;8.18;6.85;;;22.90;55.90;;;;;;31847520;28;20136;-58
2021/10/21 07:19:27;;;;;;;6.65;5.93;;;22.90;55.60;;;;;;31871181;28;20051;-47
2021/10/21 07:34:29;;;;;;;6.50;5.43;;;22.80;55.40;;;;;;31881777;28;20059;-60
2021/10/21 07:49:31;;;;;;;8.70;5.10;;;22.70;53.80;;;;;;31533827;27;10000557;-55
2021/10/21 08:04:33;;;;;;;9.35;4.88;;;22.60;53.50;;;;;;31880266;28;20055;-55
2021/10/21 08:19:35;;;;;;;5.32;4.38;;;23.10;52.50;;;;;;31869260;28;20047;-57
2021/10/21 08:34:38;;;;;;;29.33;21.15;;;23.00;51.40;;;;;;31882979;28;20094;-59
2021/10/21 08:49:41;;;;;;;6.80;6.10;;;22.90;52.00;;;;;;31879878;28;20099;-58
2021/10/21 09:19:57;;;;;;;6.47;3.47;;;23.00;53.00;;;;;;31876539;28;20039;-56
2021/10/21 09:35:05;;;;;;;11.27;7.78;;;22.90;53.50;;;;;;31871054;28;20051;-57
2021/10/21 09:50:50;;;;;;;9.38;8.18;;;22.90;53.10;;;;;;31861664;28;20032;-59
2021/10/21 10:05:54;;;;;;;15.80;11.00;;;22.90;53.20;;;;;;31826502;28;20735;-52
2021/10/21 10:21:21;;;;;;;12.50;10.23;;;22.70;54.20;;;;;;31862321;28;20055;-57
2021/10/21 10:36:27;;;;;;;7.47;3.28;;;22.70;54.20;;;;;;31864258;28;20111;-51
2021/10/21 10:51:56;;;;;;;8.02;4.05;;;22.70;53.60;;;;;;31861254;28;20103;-56
2021/10/21 11:07:05;;;;;;;4.78;3.10;;;22.60;54.00;;;;;;31882991;28;20039;-48
2021/10/21 11:22:09;;;;;;;4.50;3.50;;;22.60;54.10;;;;;;31902259;27;20059;-46
2021/10/21 11:37:11;;;;;;;3.58;2.90;;;22.50;53.80;;;;;;31933776;27;20103;-46
2021/10/21 11:52:15;;;;;;;2.50;1.98;;;22.50;53.30;;;;;;32027457;27;20063;-48
2021/10/21 12:07:17;;;;;;;2.83;2.08;;;23.10;52.50;;;;;;32025703;27;20039;-49
2021/10/21 12:22:23;;;;;;;6.63;2.63;;;23.10;52.30;;;;;;32023125;27;20059;-50
2021/10/21 12:37:28;;;;;;;17.17;4.03;;;22.90;52.60;;;;;;32018694;27;20154;-50
2021/10/21 12:52:38;;;;;;;19.65;5.07;;;22.80;52.50;;;;;;32013529;27;20054;-48
2021/10/21 13:07:40;;;;;;;15.80;6.63;;;22.80;53.20;;;;;;32001053;27;20584;-49
2021/10/21 13:22:42;;;;;;;18.98;12.27;;;22.80;53.20;;;;;;31995833;27;20067;-55
2021/10/21 13:37:45;;;;;;;24.13;16.25;;;22.80;52.80;;;;;;31635201;27;9999957;-51
2021/10/21 13:52:47;;;;;;;22.58;17.90;;;23.00;52.80;;;;;;31986031;27;20039;-56
2021/10/21 14:07:49;;;;;;;31.80;22.40;;;23.20;52.70;;;;;;31993370;27;20087;-54
2021/10/21 14:22:52;;;;;;;22.35;18.50;;;23.10;52.50;;;;;;31990879;27;20111;-51
2021/10/21 14:37:54;;;;;;;23.00;17.05;;;23.00;52.70;;;;;;31988767;27;20107;-53
2021/10/21 14:52:56;;;;;;;29.08;17.90;;;23.00;52.90;;;;;;31990572;28;20069;-47
2021/10/21 15:08:25;;;;;;;17.85;14.77;;;22.90;53.20;;;;;;31998599;28;20043;-51
2021/10/21 15:23:28;;;;;;;18.08;13.80;;;22.80;52.80;;;;;;31990902;28;20062;-50
2021/10/21 15:38:39;;;;;;;17.67;13.93;;;22.70;52.50;;;;;;31992842;27;20055;-50
2021/10/21 16:24:33;;;;;;;30.08;15.95;;;23.30;52.80;;;;;;32018854;27;20080;-46
2021/10/21 16:39:36;;;;;;;82.53;39.55;;;23.20;53.40;;;;;;32018455;27;20052;-45
2021/10/21 16:54:44;;;;;;;107.30;48.10;;;23.30;54.70;;;;;;32004499;27;20125;-53
2021/10/21 17:09:47;;;;;;;74.55;42.88;;;23.20;55.60;;;;;;31649231;27;10000011;-48
2021/10/21 17:24:49;;;;;;;78.65;42.90;;;23.00;55.80;;;;;;32004001;27;20043;-47
2021/10/21 17:39:52;;;;;;;74.60;38.03;;;23.10;56.80;;;;;;32004871;27;20184;-49
2021/10/21 17:54:54;;;;;;;68.95;36.63;;;23.10;56.80;;;;;;32001576;27;20035;-48
2021/10/21 18:09:56;;;;;;;51.78;30.55;;;23.00;56.80;;;;;;32003724;27;20090;-45
2021/10/21 18:24:58;;;;;;;57.35;31.10;;;23.00;56.90;;;;;;32003404;27;20039;-56
2021/10/21 18:40:02;;;;;;;51.15;27.13;;;23.00;57.40;;;;;;31990469;27;20079;-56
2021/10/21 18:55:06;;;;;;;47.20;26.20;;;23.00;57.30;;;;;;31993749;28;20043;-58
2021/10/21 19:10:10;;;;;;;62.05;41.22;;;23.00;57.30;;;;;;31880039;28;20055;-58
2021/10/21 19:25:12;;;;;;;8.23;5.20;;;23.00;57.20;;;;;;31828124;28;20077;-52
2021/10/21 19:40:14;;;;;;;1.40;1.02;;;23.00;57.60;;;;;;31904936;27;20070;-50
2021/10/21 19:55:17;;;;;;;0.43;0.30;;;23.00;57.60;;;;;;32017588;27;20039;-57
2021/10/21 20:10:19;;;;;;;0.20;0.20;;;23.10;57.60;;;;;;32008634;27;20055;-57
2021/10/21 20:25:21;;;;;;;0.10;0.10;;;23.10;57.80;;;;;;32006337;27;20172;-49
2021/10/21 20:40:23;;;;;;;45.53;36.10;;;23.20;57.80;;;;;;32005662;27;20082;-49
2021/10/21 20:55:27;;;;;;;17.05;12.88;;;23.10;56.90;;;;;;32008704;27;20095;-58
2021/10/21 21:10:29;;;;;;;9.70;7.07;;;23.20;57.10;;;;;;32006505;27;20050;-55
2021/10/21 21:25:31;;;;;;;5.13;4.32;;;23.30;57.30;;;;;;32006912;27;20043;-50
2021/10/21 21:40:33;;;;;;;3.17;2.58;;;23.30;57.40;;;;;;32004914;27;20103;-47
2021/10/21 21:55:37;;;;;;;2.53;2.00;;;23.40;57.50;;;;;;31999369;27;20074;-50
2021/10/21 22:10:40;;;;;;;1.25;1.15;;;23.40;57.60;;;;;;31995734;27;20090;-50
2021/10/21 22:25:42;;;;;;;1.45;1.10;;;23.40;57.60;;;;;;31985683;27;20076;-48
2021/10/21 22:40:44;;;;;;;26.38;21.92;;;23.40;57.60;;;;;;31923320;27;20062;-48
2021/10/21 22:55:47;;;;;;;22.67;17.20;;;23.20;52.70;;;;;;32003052;28;20039;-50
2021/10/21 23:10:49;;;;;;;13.65;11.05;;;23.30;56.60;;;;;;32030676;27;20046;-57
2021/10/21 23:25:51;;;;;;;7.30;6.10;;;23.30;56.90;;;;;;32012287;27;20047;-55
2021/10/21 23:40:53;;;;;;;4.43;3.50;;;23.40;57.10;;;;;;32029247;27;20084;-53
2021/10/21 23:55:55;;;;;;;30.30;23.08;;;23.40;57.30;;;;;;32021369;27;20116;-56
